F/V Pasiphae 2 — FMFN — position and weather

sailwx.info

Track history (hours):
 
Tides and Currents Weather Stations Pressure Air Temp Water Temp Dewpoint Dewpoint Depression Visibility Wind Speed Wind Dir Waves Ship Positions

F/V Pasiphae 2

Last reported at 2014-Nov-01 01:11 UTC. Time now 2014-Nov-01 07:34 UTC.
Position N 47°43' W 003°22'.

Length 14 m.

Type: Fishing. MMSI: 228224800.

Date/timePositionNaut miles runAvg speedWind from/ knotsBaromVisibWave heightAir tempDewpointWater temp
2014-Nov-01 01:11N 47°43' W 003°22'5 8.8
2014-Nov-01 00:34N 47°38' W 003°23'16 2.6
2014-Oct-31 18:33N 47°23' W 003°28'1 0.8
2014-Oct-31 17:30N 47°23' W 003°29'2 0.2
2014-Oct-31 07:30N 47°21' W 003°29'2 0.8
2014-Oct-31 05:32N 47°22' W 003°30'0 0.1
2014-Oct-31 04:13N 47°22' W 003°30'3 2.9
2014-Oct-31 03:11N 47°24' W 003°26'1 1.7
2014-Oct-31 02:20N 47°24' W 003°28'3 3.7
2014-Oct-31 01:33N 47°21' W 003°28'3 3.4
2014-Oct-31 00:31N 47°20' W 003°23'5 1.8
2014-Oct-30 21:32N 47°16' W 003°18'21 1.2
2014-Oct-30 04:08N 47°37' W 003°23'5 8.9
2014-Oct-30 03:33N 47°42' W 003°22'2 1.7
2014-Oct-30 02:33N 47°44' W 003°22'2 1.8
2014-Oct-30 01:33N 47°42' W 003°22'10 8.4
2014-Oct-30 00:25N 47°33' W 003°26'17 1.0
2014-Oct-29 06:24N 47°16' W 003°24'3 3.3
2014-Oct-29 05:33N 47°17' W 003°20'1 0.8
2014-Oct-29 04:33N 47°18' W 003°21'1 0.5
2014-Oct-29 03:33N 47°17' W 003°21'0 0.2
2014-Oct-29 02:30N 47°17' W 003°21'20 0.9
2014-Oct-28 04:18N 47°37' W 003°23'6 8.6
2014-Oct-28 03:34N 47°43' W 003°22'1 0.6
2014-Oct-28 02:34N 47°44' W 003°22'8 7.9
2014-Oct-28 01:34N 47°36' W 003°22'  
2014-Oct-24 23:33N 47°42' W 003°22'9 8.4
2014-Oct-24 22:33N 47°34' W 003°23'2 0.1
2014-Oct-23 12:33N 47°36' W 003°23'8 8.1
2014-Oct-23 11:33N 47°44' W 003°22'4 0.4
2014-Oct-23 00:33N 47°40' W 003°22'6 0.3
2014-Oct-22 03:14N 47°34' W 003°24'6 9.4
2014-Oct-22 02:33N 47°40' W 003°22'3 3.4
2014-Oct-22 01:33N 47°44' W 003°22'  
Track history (hours):
 
Tides and Currents Weather Stations Pressure Air Temp Water Temp Dewpoint Dewpoint Depression Visibility Wind Speed Wind Dir Waves Ship Positions

F/V Pasiphae 2

Last reported at 2014-Nov-01 01:11 UTC. Time now 2014-Nov-01 07:34 UTC.
Position N 47°43' W 003°22'.

Length 14 m.

Type: Fishing. MMSI: 228224800.

Date/timePositionNaut miles runAvg speedWind from/ knotsBaromVisibWave heightAir tempDewpointWater temp
2014-Nov-01 01:11N 47°43' W 003°22'5 8.8
2014-Nov-01 00:34N 47°38' W 003°23'16 2.6
2014-Oct-31 18:33N 47°23' W 003°28'1 0.8
2014-Oct-31 17:30N 47°23' W 003°29'2 0.2
2014-Oct-31 07:30N 47°21' W 003°29'2 0.8
2014-Oct-31 05:32N 47°22' W 003°30'0 0.1
2014-Oct-31 04:13N 47°22' W 003°30'3 2.9
2014-Oct-31 03:11N 47°24' W 003°26'1 1.7
2014-Oct-31 02:20N 47°24' W 003°28'3 3.7
2014-Oct-31 01:33N 47°21' W 003°28'3 3.4
2014-Oct-31 00:31N 47°20' W 003°23'5 1.8
2014-Oct-30 21:32N 47°16' W 003°18'21 1.2
2014-Oct-30 04:08N 47°37' W 003°23'5 8.9
2014-Oct-30 03:33N 47°42' W 003°22'2 1.7
2014-Oct-30 02:33N 47°44' W 003°22'2 1.8
2014-Oct-30 01:33N 47°42' W 003°22'10 8.4
2014-Oct-30 00:25N 47°33' W 003°26'17 1.0
2014-Oct-29 06:24N 47°16' W 003°24'3 3.3
2014-Oct-29 05:33N 47°17' W 003°20'1 0.8
2014-Oct-29 04:33N 47°18' W 003°21'1 0.5
2014-Oct-29 03:33N 47°17' W 003°21'0 0.2
2014-Oct-29 02:30N 47°17' W 003°21'20 0.9
2014-Oct-28 04:18N 47°37' W 003°23'6 8.6
2014-Oct-28 03:34N 47°43' W 003°22'1 0.6
2014-Oct-28 02:34N 47°44' W 003°22'8 7.9
2014-Oct-28 01:34N 47°36' W 003°22'  
2014-Oct-24 23:33N 47°42' W 003°22'9 8.4
2014-Oct-24 22:33N 47°34' W 003°23'2 0.1
2014-Oct-23 12:33N 47°36' W 003°23'8 8.1
2014-Oct-23 11:33N 47°44' W 003°22'4 0.4
2014-Oct-23 00:33N 47°40' W 003°22'6 0.3
2014-Oct-22 03:14N 47°34' W 003°24'6 9.4
2014-Oct-22 02:33N 47°40' W 003°22'3 3.4
2014-Oct-22 01:33N 47°44' W 003°22'  

Dump ship's entire track history